createdAt,value
2023-12-20T00:01:28.799Z,100955.97
2023-12-20T00:03:59.237Z,100965.03
2023-12-20T00:06:29.745Z,100959.66
2023-12-20T00:09:00.131Z,100965.25
2023-12-20T00:11:33.085Z,100966.25
2023-12-20T00:14:03.435Z,100958.22
2023-12-20T00:16:33.736Z,100956.75
2023-12-20T00:19:04.192Z,100956.50
2023-12-20T00:21:34.532Z,100948.06
2023-12-20T00:24:04.911Z,100947.56
2023-12-20T00:26:38.039Z,100950.00
2023-12-20T00:29:08.410Z,100944.22
2023-12-20T00:31:38.789Z,100942.25
2023-12-20T00:34:09.574Z,100950.81
2023-12-20T00:36:40.124Z,100951.53
2023-12-20T00:39:10.661Z,100954.94
2023-12-20T00:41:43.682Z,100963.59
2023-12-20T00:44:14.488Z,100966.41
2023-12-20T00:46:44.806Z,100963.31
2023-12-20T00:49:15.298Z,100966.88
2023-12-20T00:51:45.804Z,100954.28
2023-12-20T00:54:16.203Z,100952.56
2023-12-20T00:56:49.129Z,100956.13
2023-12-20T00:59:20.889Z,100955.41
2023-12-20T01:01:51.307Z,100958.94
2023-12-20T01:04:22.133Z,100953.56
2023-12-20T01:06:52.516Z,100947.47
2023-12-20T01:09:24.718Z,100959.91
2023-12-20T01:11:58.015Z,100954.53
2023-12-20T01:14:28.575Z,100954.69
2023-12-20T01:16:58.965Z,100959.19
2023-12-20T01:19:29.844Z,100952.97
2023-12-20T01:22:00.356Z,100948.31
2023-12-20T01:24:30.729Z,100937.56
2023-12-20T01:27:03.681Z,100936.13
2023-12-20T01:29:34.019Z,100941.25
2023-12-20T01:32:04.416Z,100939.28
2023-12-20T01:34:34.940Z,100928.88
2023-12-20T01:37:05.615Z,100935.66
2023-12-20T01:39:36.042Z,100948.63
2023-12-20T01:42:09.500Z,100949.94
2023-12-20T01:44:39.997Z,100953.78
2023-12-20T01:47:10.597Z,100954.53
2023-12-20T01:49:41.745Z,100951.56
2023-12-20T01:52:13.683Z,100949.22
2023-12-20T01:54:46.061Z,100932.66
2023-12-20T01:57:20.716Z,100932.84
2023-12-20T01:59:51.178Z,100928.94
2023-12-20T02:02:21.926Z,100921.47
2023-12-20T02:04:52.644Z,100918.47
2023-12-20T02:07:24.443Z,100919.78
2023-12-20T02:09:55.071Z,100923.91
2023-12-20T02:12:28.034Z,100929.16
2023-12-20T02:14:58.584Z,100927.19
2023-12-20T02:17:29.994Z,100926.78
2023-12-20T02:20:00.684Z,100923.81
2023-12-20T02:22:33.748Z,100927.22
2023-12-20T02:25:04.157Z,100921.84
2023-12-20T02:27:34.580Z,100922.00
2023-12-20T02:30:05.007Z,100916.88
2023-12-20T02:32:35.409Z,100921.13
2023-12-20T02:35:06.173Z,100912.34
2023-12-20T02:37:40.057Z,100918.03
2023-12-20T02:40:13.140Z,100911.28
2023-12-20T02:42:43.606Z,100912.69
2023-12-20T02:45:14.191Z,100916.00
2023-12-20T02:47:44.830Z,100917.28
2023-12-20T02:50:15.576Z,100910.50
2023-12-20T02:52:49.598Z,100903.72
2023-12-20T02:55:20.091Z,100909.38
2023-12-20T02:57:50.847Z,100901.75
2023-12-20T03:00:22.020Z,100898.34
2023-12-20T03:02:52.340Z,100893.53
2023-12-20T03:05:22.812Z,100883.06
2023-12-20T03:07:56.109Z,100886.03
2023-12-20T03:10:27.485Z,100891.84
2023-12-20T03:12:58.191Z,100886.19
2023-12-20T03:15:28.761Z,100890.72
2023-12-20T03:18:00.558Z,100898.50
2023-12-20T03:20:33.311Z,100894.84
2023-12-20T03:23:06.489Z,100886.91
2023-12-20T03:25:36.808Z,100887.59
2023-12-20T03:28:08.072Z,100886.63
2023-12-20T03:30:38.753Z,100885.63
2023-12-20T03:33:09.528Z,100880.09
2023-12-20T03:35:39.972Z,100872.03
2023-12-20T03:38:13.151Z,100863.38
2023-12-20T03:40:43.560Z,100885.50
2023-12-20T03:43:14.032Z,100876.00
2023-12-20T03:45:44.546Z,100877.69
2023-12-20T03:48:14.947Z,100887.88
2023-12-20T03:50:45.369Z,100888.59
2023-12-20T03:53:18.282Z,100880.81
2023-12-20T03:55:48.768Z,100889.84
2023-12-20T03:58:19.097Z,100887.03
2023-12-20T04:00:49.608Z,100893.41
2023-12-20T04:03:20.027Z,100889.03
2023-12-20T04:05:50.696Z,100877.28
2023-12-20T04:08:24.046Z,100893.13
2023-12-20T04:10:54.400Z,100891.31
2023-12-20T04:13:24.728Z,100892.88
2023-12-20T04:15:55.103Z,100887.06
2023-12-20T04:18:25.524Z,100899.53
2023-12-20T04:20:55.913Z,100896.56
2023-12-20T04:23:28.877Z,100889.91
2023-12-20T04:25:59.469Z,100884.25
2023-12-20T04:28:31.783Z,100866.38
2023-12-20T04:31:02.399Z,100867.38
2023-12-20T04:33:32.803Z,100879.41
2023-12-20T04:36:03.455Z,100864.69
2023-12-20T04:38:36.390Z,100868.50
2023-12-20T04:41:07.375Z,100858.41
2023-12-20T04:43:37.895Z,100852.31
2023-12-20T04:46:08.419Z,100861.69
2023-12-20T04:48:38.891Z,100850.19
2023-12-20T04:51:09.267Z,100845.38
2023-12-20T04:53:42.188Z,100852.75
2023-12-20T04:56:13.232Z,100842.81
2023-12-20T04:58:43.630Z,100850.91
2023-12-20T05:01:14.110Z,100840.00
2023-12-20T05:03:44.499Z,100834.03
2023-12-20T05:06:16.240Z,100841.84
2023-12-20T05:08:49.185Z,100849.22
2023-12-20T05:11:19.527Z,100858.41
2023-12-20T05:13:50.763Z,100853.88
2023-12-20T05:16:22.088Z,100856.97
2023-12-20T05:18:54.308Z,100849.78
2023-12-20T05:21:24.701Z,100845.09
2023-12-20T05:23:57.642Z,100835.16
2023-12-20T05:26:27.993Z,100844.94
2023-12-20T05:28:58.316Z,100836.69
2023-12-20T05:31:28.713Z,100837.41
2023-12-20T05:33:59.179Z,100833.75
2023-12-20T05:36:29.938Z,100846.78
2023-12-20T05:39:02.849Z,100852.88
2023-12-20T05:41:33.228Z,100842.25
2023-12-20T05:44:03.658Z,100840.56
2023-12-20T05:46:34.302Z,100829.78
2023-12-20T05:49:04.717Z,100819.16
2023-12-20T05:51:35.151Z,100822.53
2023-12-20T05:54:08.280Z,100826.06
2023-12-20T05:56:38.703Z,100824.41
2023-12-20T05:59:09.459Z,100821.13
2023-12-20T06:01:39.873Z,100830.91
2023-12-20T06:04:10.457Z,100839.97
2023-12-20T06:06:46.391Z,100836.31
2023-12-20T06:09:19.520Z,100839.69
2023-12-20T06:11:49.853Z,100828.94
2023-12-20T06:14:20.490Z,100841.69
2023-12-20T06:16:50.940Z,100834.88
2023-12-20T06:19:21.415Z,100824.69
2023-12-20T06:21:51.849Z,100819.56
2023-12-20T06:24:29.303Z,100812.50
2023-12-20T06:26:59.764Z,100807.53
2023-12-20T06:29:30.230Z,100809.97
2023-12-20T06:32:00.575Z,100799.31
2023-12-20T06:34:30.978Z,100789.84
2023-12-20T06:37:01.488Z,100810.53
2023-12-20T06:39:35.664Z,100816.19
2023-12-20T06:42:06.756Z,100821.31
2023-12-20T06:44:38.255Z,100832.06
2023-12-20T06:47:08.780Z,100823.00
2023-12-20T06:49:39.200Z,100810.81
2023-12-20T06:52:09.817Z,100818.16
2023-12-20T06:54:42.928Z,100826.69
2023-12-20T06:57:13.293Z,100826.25
2023-12-20T06:59:44.018Z,100820.44
2023-12-20T07:02:15.517Z,100827.50
2023-12-20T07:04:46.277Z,100830.22
2023-12-20T07:07:16.793Z,100835.19
2023-12-20T07:09:49.902Z,100841.84
2023-12-20T07:12:20.804Z,100831.22
2023-12-20T07:14:51.466Z,100825.25
2023-12-20T07:17:22.854Z,100818.72
2023-12-20T07:19:53.408Z,100810.78
2023-12-20T07:22:23.868Z,100815.88
2023-12-20T07:24:56.876Z,100817.28
2023-12-20T07:27:27.252Z,100817.00
2023-12-20T07:29:57.649Z,100826.63
2023-12-20T07:32:28.619Z,100827.50
2023-12-20T07:34:59.607Z,100841.53
2023-12-20T07:37:30.098Z,100846.34
2023-12-20T07:40:03.066Z,100839.94
2023-12-20T07:42:33.909Z,100842.63
2023-12-20T07:45:04.239Z,100846.75
2023-12-20T07:47:34.703Z,100839.38
2023-12-20T07:50:05.097Z,100833.97
2023-12-20T07:52:35.482Z,100832.28
2023-12-20T07:55:09.754Z,100829.16
2023-12-20T07:57:40.125Z,100838.25
2023-12-20T08:00:12.509Z,100834.84
2023-12-20T08:02:42.886Z,100833.44
2023-12-20T08:05:13.386Z,100825.66
2023-12-20T08:07:44.014Z,100831.31
2023-12-20T08:10:18.107Z,100830.91
2023-12-20T08:12:48.542Z,100816.00
2023-12-20T08:15:19.074Z,100822.69
2023-12-20T08:17:49.686Z,100836.72
2023-12-20T08:20:26.662Z,100837.56
2023-12-20T08:23:00.593Z,100847.78
2023-12-20T08:25:33.554Z,100845.53
2023-12-20T08:28:04.350Z,100839.16
2023-12-20T08:30:34.741Z,100838.84
2023-12-20T08:33:05.922Z,100837.56
2023-12-20T08:35:37.162Z,100846.78
2023-12-20T08:38:08.218Z,100861.50
2023-12-20T08:40:42.819Z,100860.53
2023-12-20T08:43:13.187Z,100852.00
2023-12-20T08:45:43.611Z,100838.25
2023-12-20T08:48:14.061Z,100833.41
2023-12-20T08:50:44.747Z,100845.03
2023-12-20T08:53:15.282Z,100839.25
2023-12-20T08:55:48.309Z,100832.28
2023-12-20T08:58:19.097Z,100839.25
2023-12-20T09:00:49.882Z,100829.28
2023-12-20T09:03:20.263Z,100824.88
2023-12-20T09:05:50.602Z,100834.53
2023-12-20T09:08:20.991Z,100828.97
2023-12-20T09:10:53.889Z,100818.91
2023-12-20T09:13:29.601Z,100831.13
2023-12-20T09:16:00.591Z,100824.84
2023-12-20T09:18:31.021Z,100837.50
2023-12-20T09:21:01.447Z,100835.34
2023-12-20T09:23:31.854Z,100832.53
2023-12-20T09:26:05.342Z,100826.53
2023-12-20T09:28:38.712Z,100823.84
2023-12-20T09:31:09.728Z,100822.41
2023-12-20T09:33:41.189Z,100820.25
2023-12-20T09:36:14.168Z,100820.34
2023-12-20T09:38:46.890Z,100807.88
2023-12-20T09:41:20.554Z,100815.50
2023-12-20T09:43:53.529Z,100807.84
2023-12-20T09:46:29.221Z,100814.78
2023-12-20T09:49:00.373Z,100807.09
2023-12-20T09:51:33.362Z,100811.19
2023-12-20T09:54:04.917Z,100797.41
2023-12-20T09:56:38.653Z,100781.06
2023-12-20T09:59:09.060Z,100780.59
2023-12-20T10:01:40.544Z,100781.84
2023-12-20T10:04:26.002Z,100781.41
2023-12-20T10:07:01.632Z,100777.69
2023-12-20T10:09:36.019Z,100786.47
2023-12-20T10:12:10.969Z,100785.31
2023-12-20T10:14:42.995Z,100784.47
2023-12-20T10:17:13.463Z,100802.44
2023-12-20T10:19:43.880Z,100787.50
2023-12-20T10:22:15.094Z,100791.72
2023-12-20T10:24:45.669Z,100805.78
2023-12-20T10:27:20.663Z,100808.19
2023-12-20T10:29:50.786Z,100808.72
2023-12-20T10:32:29.308Z,100808.72
2023-12-20T10:35:00.945Z,100797.63
2023-12-20T10:37:31.489Z,100794.59
2023-12-20T10:40:07.456Z,100793.13
2023-12-20T10:42:42.327Z,100778.47
2023-12-20T10:45:13.801Z,100776.78
2023-12-20T10:47:46.852Z,100774.78
2023-12-20T10:50:17.568Z,100776.78
2023-12-20T10:52:50.142Z,100772.59
2023-12-20T10:55:20.796Z,100752.00
2023-12-20T10:57:54.351Z,100760.28
2023-12-20T11:00:28.069Z,100766.19
2023-12-20T11:03:01.010Z,100748.19
2023-12-20T11:05:50.492Z,100733.25
2023-12-20T11:08:32.001Z,100725.53
2023-12-20T11:11:11.554Z,100721.84
2023-12-20T11:13:57.891Z,100726.94
2023-12-20T11:16:35.302Z,100721.00
2023-12-20T11:19:12.422Z,100716.66
2023-12-20T11:21:44.047Z,100705.84
2023-12-20T11:24:14.714Z,100696.22
2023-12-20T11:26:52.687Z,100686.78
2023-12-20T11:29:39.220Z,100680.53
2023-12-20T11:32:33.282Z,100662.84
2023-12-20T11:35:05.799Z,100662.19
2023-12-20T11:37:44.762Z,100655.31
2023-12-20T11:40:19.385Z,100646.75
2023-12-20T11:42:55.584Z,100647.75
2023-12-20T11:45:31.047Z,100653.69
2023-12-20T11:48:02.181Z,100641.75
2023-12-20T11:50:33.313Z,100636.00
2023-12-20T11:53:03.745Z,100640.94
2023-12-20T11:55:34.170Z,100635.38
2023-12-20T11:58:04.712Z,100633.34
2023-12-20T12:00:37.691Z,100631.63
2023-12-20T12:03:08.524Z,100626.75
2023-12-20T12:05:39.345Z,100613.91
2023-12-20T12:08:11.308Z,100601.06
2023-12-20T12:10:41.723Z,100601.91
2023-12-20T12:13:12.430Z,100593.47
2023-12-20T12:15:46.351Z,100585.38
2023-12-20T12:18:20.404Z,100595.00
2023-12-20T12:20:52.027Z,100588.09
2023-12-20T12:23:28.654Z,100579.66
2023-12-20T12:25:59.859Z,100567.31
2023-12-20T12:28:34.134Z,100567.78
2023-12-20T12:31:07.737Z,100553.97
2023-12-20T12:33:38.858Z,100548.53
2023-12-20T12:36:10.649Z,100531.13
2023-12-20T12:38:41.100Z,100537.41
2023-12-20T12:41:12.075Z,100538.09
2023-12-20T12:43:42.974Z,100523.22
2023-12-20T12:46:16.134Z,100538.97
2023-12-20T12:48:47.404Z,100538.75
2023-12-20T12:51:18.330Z,100526.78
2023-12-20T12:53:48.659Z,100532.88
2023-12-20T12:56:19.689Z,100524.75
2023-12-20T12:58:50.340Z,100532.00
2023-12-20T13:01:23.391Z,100531.84
2023-12-20T13:03:54.101Z,100515.09
2023-12-20T13:06:24.705Z,100505.97
2023-12-20T13:08:55.095Z,100512.72
2023-12-20T13:11:26.694Z,100515.59
2023-12-20T13:13:57.184Z,100508.00
2023-12-20T13:16:30.459Z,100501.56
2023-12-20T13:19:01.548Z,100505.31
2023-12-20T13:21:32.334Z,100498.19
2023-12-20T13:24:02.793Z,100504.13
2023-12-20T13:26:33.280Z,100484.31
2023-12-20T13:29:06.096Z,100483.81
2023-12-20T13:31:41.214Z,100467.56
2023-12-20T13:34:11.795Z,100464.03
2023-12-20T13:36:42.327Z,100457.28
2023-12-20T13:39:12.789Z,100443.09
2023-12-20T13:41:43.399Z,100440.88
2023-12-20T13:44:13.843Z,100432.25
2023-12-20T13:46:48.025Z,100426.00
2023-12-20T13:49:18.519Z,100419.06
2023-12-20T13:51:49.079Z,100414.81
2023-12-20T13:54:22.990Z,100410.75
2023-12-20T13:57:05.850Z,100406.53
2023-12-20T13:59:42.888Z,100406.88
2023-12-20T14:02:16.435Z,100399.44
2023-12-20T14:04:47.178Z,100389.63
2023-12-20T14:07:17.666Z,100389.28
2023-12-20T14:09:49.018Z,100365.59
2023-12-20T14:12:19.812Z,100364.75
2023-12-20T14:14:50.160Z,100358.47
2023-12-20T14:17:25.553Z,100363.56
2023-12-20T14:19:56.261Z,100371.84
2023-12-20T14:22:26.975Z,100361.03
2023-12-20T14:24:58.636Z,100342.59
2023-12-20T14:27:29.206Z,100353.41
2023-12-20T14:29:59.562Z,100346.00
2023-12-20T14:32:32.530Z,100333.13
2023-12-20T14:35:03.336Z,100335.84
2023-12-20T14:37:33.854Z,100330.25
2023-12-20T14:40:04.298Z,100339.22
2023-12-20T14:42:34.633Z,100336.84
2023-12-20T14:45:05.028Z,100348.00
2023-12-20T14:47:38.304Z,100337.84
2023-12-20T14:50:12.066Z,100323.31
2023-12-20T14:52:42.454Z,100335.81
2023-12-20T14:55:12.919Z,100338.22
2023-12-20T14:57:43.462Z,100329.06
2023-12-20T15:00:17.691Z,100326.84
2023-12-20T15:02:51.014Z,100329.56
2023-12-20T15:05:21.730Z,100324.31
2023-12-20T15:07:52.261Z,100324.97
2023-12-20T15:10:22.935Z,100329.41
2023-12-20T15:12:53.325Z,100334.13
2023-12-20T15:15:24.031Z,100330.59
2023-12-20T15:17:57.346Z,100332.09
2023-12-20T15:20:27.742Z,100334.47
2023-12-20T15:23:00.348Z,100344.28
2023-12-20T15:25:30.743Z,100329.72
2023-12-20T15:28:01.217Z,100338.88
2023-12-20T15:30:31.680Z,100338.22
2023-12-20T15:33:07.646Z,100336.16
2023-12-20T15:35:38.580Z,100339.53
2023-12-20T15:38:09.072Z,100339.91
2023-12-20T15:40:39.866Z,100337.72
2023-12-20T15:43:10.618Z,100325.00
2023-12-20T15:45:41.543Z,100317.91
2023-12-20T15:48:19.122Z,100317.22
2023-12-20T15:50:49.575Z,100331.44
2023-12-20T15:53:19.906Z,100329.94
2023-12-20T15:55:50.246Z,100326.00
2023-12-20T15:58:20.611Z,100320.59
2023-12-20T16:00:51.197Z,100321.47
2023-12-20T16:03:25.812Z,100313.53
2023-12-20T16:05:57.542Z,100315.19
2023-12-20T16:08:28.521Z,100324.00
2023-12-20T16:10:58.880Z,100317.72
2023-12-20T16:13:29.893Z,100319.94
2023-12-20T16:16:01.918Z,100315.91
2023-12-20T16:18:37.018Z,100324.34
2023-12-20T16:21:08.655Z,100306.06
2023-12-20T16:23:39.024Z,100315.69
2023-12-20T16:26:09.520Z,100318.94
2023-12-20T16:28:40.054Z,100303.19
2023-12-20T16:31:10.727Z,100302.38
2023-12-20T16:33:43.900Z,100308.78
2023-12-20T16:36:14.359Z,100297.28
2023-12-20T16:38:44.840Z,100293.22
2023-12-20T16:41:15.338Z,100293.22
2023-12-20T16:43:46.139Z,100291.16
2023-12-20T16:46:16.511Z,100286.78
2023-12-20T16:48:49.601Z,100278.34
2023-12-20T16:51:20.041Z,100274.59
2023-12-20T16:53:50.482Z,100276.63
2023-12-20T16:56:21.107Z,100283.41
2023-12-20T16:58:51.535Z,100289.50
2023-12-20T17:01:23.977Z,100290.50
2023-12-20T17:03:57.272Z,100301.66
2023-12-20T17:06:28.101Z,100294.03
2023-12-20T17:08:58.684Z,100290.16
2023-12-20T17:11:29.159Z,100281.72
2023-12-20T17:13:59.999Z,100291.00
2023-12-20T17:16:30.460Z,100287.63
2023-12-20T17:19:03.432Z,100284.09
2023-12-20T17:21:34.589Z,100272.59
2023-12-20T17:24:05.030Z,100277.81
2023-12-20T17:26:35.445Z,100283.59
2023-12-20T17:29:05.811Z,100288.50
2023-12-20T17:31:37.630Z,100295.97
2023-12-20T17:34:12.579Z,100281.22
2023-12-20T17:36:45.149Z,100281.06
2023-12-20T17:39:15.808Z,100286.28
2023-12-20T17:41:46.214Z,100289.84
2023-12-20T17:44:17.966Z,100291.34
2023-12-20T17:46:48.286Z,100300.81
2023-12-20T17:49:23.016Z,100290.34
2023-12-20T17:51:54.586Z,100294.53
2023-12-20T17:54:25.301Z,100301.31
2023-12-20T17:56:55.657Z,100303.88
2023-12-20T17:59:26.217Z,100316.19
2023-12-20T18:01:56.771Z,100312.16
2023-12-20T18:04:29.771Z,100307.78
2023-12-20T18:07:00.318Z,100296.94
2023-12-20T18:09:30.692Z,100299.13
2023-12-20T18:12:01.019Z,100307.78
2023-12-20T18:14:31.524Z,100295.91
2023-12-20T18:17:01.857Z,100300.00
2023-12-20T18:19:35.070Z,100297.28
2023-12-20T18:22:05.520Z,100302.69
2023-12-20T18:24:35.940Z,100309.13
2023-12-20T18:27:06.296Z,100308.44
2023-12-20T18:29:36.740Z,100298.97
2023-12-20T18:32:07.802Z,100301.50
2023-12-20T18:34:40.811Z,100295.25
2023-12-20T18:37:12.567Z,100296.94
2023-12-20T18:39:43.003Z,100303.69
2023-12-20T18:42:13.375Z,100294.53
2023-12-20T18:44:43.718Z,100294.53
2023-12-20T18:47:14.033Z,100286.25
2023-12-20T18:49:47.268Z,100281.69
2023-12-20T18:52:18.005Z,100288.44
2023-12-20T18:54:48.362Z,100292.50
2023-12-20T18:57:18.678Z,100290.84
2023-12-20T18:59:49.122Z,100293.38
2023-12-20T19:02:19.724Z,100275.25
2023-12-20T19:04:52.781Z,100277.28
2023-12-20T19:07:23.244Z,100286.25
2023-12-20T19:09:53.721Z,100279.69
2023-12-20T19:12:24.177Z,100278.31
2023-12-20T19:14:54.504Z,100280.72
2023-12-20T19:17:24.848Z,100274.09
2023-12-20T19:19:57.881Z,100265.44
2023-12-20T19:22:30.359Z,100270.00
2023-12-20T19:25:06.867Z,100255.31
2023-12-20T19:27:37.825Z,100258.03
2023-12-20T19:30:09.894Z,100266.31
2023-12-20T19:32:40.341Z,100274.09
2023-12-20T19:35:13.550Z,100267.34
2023-12-20T19:37:44.698Z,100273.94
2023-12-20T19:40:16.103Z,100277.81
2023-12-20T19:42:46.704Z,100274.09
2023-12-20T19:45:18.063Z,100270.72
2023-12-20T19:47:52.691Z,100267.19
2023-12-20T19:50:26.088Z,100243.66
2023-12-20T19:52:56.510Z,100246.19
2023-12-20T19:55:26.910Z,100244.16
2023-12-20T19:57:57.398Z,100237.22
2023-12-20T20:00:29.907Z,100238.75
2023-12-20T20:03:01.846Z,100254.63
2023-12-20T20:05:34.900Z,100250.56
2023-12-20T20:08:05.337Z,100255.59
2023-12-20T20:10:35.957Z,100243.09
2023-12-20T20:13:06.371Z,100251.03
2023-12-20T20:15:36.802Z,100245.25
2023-12-20T20:18:08.476Z,100244.25
2023-12-20T20:20:42.326Z,100248.81
2023-12-20T20:23:12.692Z,100251.88
2023-12-20T20:25:43.129Z,100250.34
2023-12-20T20:28:13.660Z,100249.97
2023-12-20T20:30:44.060Z,100240.84
2023-12-20T20:33:14.580Z,100224.59
2023-12-20T20:35:47.646Z,100219.34
2023-12-20T20:38:18.141Z,100216.78
2023-12-20T20:40:48.991Z,100231.81
2023-12-20T20:43:19.811Z,100229.28
2023-12-20T20:45:51.440Z,100221.34
2023-12-20T20:48:27.819Z,100214.59
2023-12-20T20:51:07.069Z,100214.53
2023-12-20T20:53:37.400Z,100210.16
2023-12-20T20:56:09.487Z,100192.03
2023-12-20T20:58:39.831Z,100205.59
2023-12-20T21:01:10.517Z,100204.09
2023-12-20T21:03:40.884Z,100187.00
2023-12-20T21:06:14.507Z,100197.28
2023-12-20T21:08:44.855Z,100223.34
2023-12-20T21:11:16.509Z,100200.66
2023-12-20T21:13:48.911Z,100196.28
2023-12-20T21:16:19.403Z,100191.53
2023-12-20T21:18:49.784Z,100198.28
2023-12-20T21:21:22.725Z,100203.19
2023-12-20T21:23:53.051Z,100211.31
2023-12-20T21:26:23.791Z,100189.81
2023-12-20T21:28:54.180Z,100189.47
2023-12-20T21:31:24.623Z,100185.56
2023-12-20T21:33:56.212Z,100184.16
2023-12-20T21:36:29.211Z,100178.25
2023-12-20T21:38:59.561Z,100165.59
2023-12-20T21:41:29.954Z,100184.00
2023-12-20T21:44:00.362Z,100174.19
2023-12-20T21:46:30.995Z,100177.09
2023-12-20T21:49:01.523Z,100162.03
2023-12-20T21:51:34.475Z,100156.59
2023-12-20T21:54:05.951Z,100156.44
2023-12-20T21:56:38.122Z,100149.88
2023-12-20T21:59:08.481Z,100139.88
2023-12-20T22:01:40.541Z,100134.09
2023-12-20T22:04:11.029Z,100139.34
2023-12-20T22:06:44.073Z,100150.00
2023-12-20T22:09:14.702Z,100144.09
2023-12-20T22:11:45.109Z,100135.25
2023-12-20T22:14:15.586Z,100144.19
2023-12-20T22:16:45.947Z,100149.13
2023-12-20T22:19:16.357Z,100157.41
2023-12-20T22:21:49.375Z,100160.28
2023-12-20T22:24:19.761Z,100150.47
2023-12-20T22:26:50.142Z,100152.53
2023-12-20T22:29:20.794Z,100146.38
2023-12-20T22:31:51.290Z,100158.59
2023-12-20T22:34:22.124Z,100152.53
2023-12-20T22:36:55.228Z,100155.41
2023-12-20T22:39:27.723Z,100148.78
2023-12-20T22:41:58.064Z,100148.31
2023-12-20T22:44:28.422Z,100148.31
2023-12-20T22:46:58.831Z,100136.63
2023-12-20T22:49:29.214Z,100109.91
2023-12-20T22:52:02.351Z,100097.91
2023-12-20T22:54:32.685Z,100086.94
2023-12-20T22:57:03.023Z,100097.78
2023-12-20T22:59:33.384Z,100091.13
2023-12-20T23:02:03.782Z,100088.63
2023-12-20T23:04:35.855Z,100081.53
2023-12-20T23:07:08.961Z,100062.94
2023-12-20T23:09:40.280Z,100049.88
2023-12-20T23:12:12.755Z,100048.03
2023-12-20T23:14:43.173Z,100042.63
2023-12-20T23:17:13.626Z,100051.94
2023-12-20T23:19:44.214Z,100051.09
2023-12-20T23:22:17.437Z,100073.59
2023-12-20T23:24:47.972Z,100059.56
2023-12-20T23:27:18.353Z,100056.50
2023-12-20T23:29:48.715Z,100056.03
2023-12-20T23:32:19.052Z,100050.75
2023-12-20T23:35:00.747Z,100045.13
2023-12-20T23:37:42.292Z,100035.50
2023-12-20T23:40:13.739Z,100031.56
2023-12-20T23:42:44.314Z,100015.72
2023-12-20T23:45:14.727Z,100013.50
2023-12-20T23:47:45.510Z,100003.31
2023-12-20T23:50:16.484Z,99996.19
2023-12-20T23:52:49.944Z,99988.72
2023-12-20T23:55:20.724Z,99995.84
2023-12-20T23:57:51.160Z,99987.91
